createdAt,value
2018-11-29T00:02:10.029Z,-1.41
2018-11-29T00:04:40.707Z,-1.39
2018-11-29T00:07:14.923Z,-1.38
2018-11-29T00:09:48.859Z,-1.30
2018-11-29T00:12:20.590Z,-1.32
2018-11-29T00:14:52.411Z,-3.23
2018-11-29T00:17:24.467Z,-1.37
2018-11-29T00:19:55.263Z,-1.48
2018-11-29T00:22:27.084Z,-1.41
2018-11-29T00:24:58.604Z,-1.40
2018-11-29T00:27:29.631Z,-1.42
2018-11-29T00:29:59.960Z,-1.44
2018-11-29T00:32:32.545Z,-1.37
2018-11-29T00:35:03.684Z,-1.48
2018-11-29T00:37:35.778Z,-1.41
2018-11-29T00:40:19.517Z,-1.49
2018-11-29T00:42:51.581Z,-1.45
2018-11-29T00:45:24.944Z,-1.46
2018-11-29T00:47:56.798Z,-1.44
2018-11-29T00:50:30.097Z,-1.57
2018-11-29T00:53:04.490Z,-1.49
2018-11-29T00:55:33.922Z,-1.47
2018-11-29T00:58:04.255Z,-1.54
2018-11-29T01:00:35.157Z,-1.58
2018-11-29T01:03:05.199Z,-1.54
2018-11-29T01:05:36.545Z,-1.53
2018-11-29T01:08:09.774Z,-1.53
2018-11-29T01:10:43.943Z,-1.57
2018-11-29T01:13:14.515Z,-1.63
2018-11-29T01:15:44.578Z,-1.52
2018-11-29T01:18:18.197Z,-1.52
2018-11-29T01:20:47.631Z,-1.48
2018-11-29T01:23:19.280Z,-1.64
2018-11-29T01:25:50.118Z,-1.54
2018-11-29T01:28:22.395Z,-1.53
2018-11-29T01:30:53.090Z,-1.59
2018-11-29T01:33:25.769Z,-1.58
2018-11-29T01:35:58.626Z,-1.55
2018-11-29T01:38:30.919Z,-1.67
2018-11-29T01:41:01.546Z,-1.60
2018-11-29T01:43:31.817Z,-1.63
2018-11-29T01:46:01.490Z,-1.68
2018-11-29T01:48:32.902Z,-1.61
2018-11-29T01:51:05.572Z,-1.64
2018-11-29T01:53:39.285Z,-1.64
2018-11-29T01:56:10.957Z,-1.57
2018-11-29T01:58:43.029Z,-1.60
2018-11-29T02:01:13.767Z,-1.61
2018-11-29T02:03:43.955Z,-1.57
2018-11-29T02:08:55.198Z,-1.50
2018-11-29T02:11:27.438Z,-1.58
2018-11-29T02:13:56.744Z,-1.63
2018-11-29T02:16:28.915Z,-1.65
2018-11-29T02:18:59.873Z,-1.55
2018-11-29T02:21:31.944Z,-1.43
2018-11-29T02:24:02.148Z,-1.50
2018-11-29T02:26:32.456Z,-1.53
2018-11-29T02:29:04.380Z,-1.49
2018-11-29T02:31:36.550Z,-1.43
2018-11-29T02:34:11.287Z,-1.38
2018-11-29T02:36:42.796Z,-1.39
2018-11-29T02:39:12.981Z,-1.41
2018-11-29T02:41:42.387Z,-1.34
2018-11-29T02:44:13.022Z,-1.46
2018-11-29T02:46:43.287Z,-1.30
2018-11-29T02:49:13.407Z,-1.32
2018-11-29T02:51:44.152Z,-1.25
2018-11-29T02:54:14.209Z,-1.41
2018-11-29T02:56:44.763Z,-1.42
2018-11-29T02:59:15.166Z,-1.34
2018-11-29T03:01:45.382Z,-1.33
2018-11-29T03:04:16.464Z,-1.30
2018-11-29T03:06:47.257Z,-1.33
2018-11-29T03:09:18.131Z,-1.29
2018-11-29T03:11:48.113Z,-1.32
2018-11-29T03:14:18.740Z,-1.29
2018-11-29T03:16:49.270Z,-1.23
2018-11-29T03:19:20.121Z,-1.24
2018-11-29T03:21:51.232Z,-1.38
2018-11-29T03:24:23.284Z,-1.32
2018-11-29T03:26:54.182Z,-1.28
2018-11-29T03:29:24.680Z,-1.22
2018-11-29T03:31:54.950Z,-1.25
2018-11-29T03:34:24.957Z,-1.27
2018-11-29T03:37:57.698Z,-1.40
2018-11-29T03:40:28.227Z,-1.23
2018-11-29T03:42:59.062Z,-1.26
2018-11-29T03:45:30.386Z,-1.26
2018-11-29T03:48:00.733Z,-1.26
2018-11-29T03:50:31.249Z,-1.23
2018-11-29T03:53:01.730Z,-1.17
2018-11-29T03:55:32.668Z,-1.19
2018-11-29T03:58:02.741Z,-1.24
2018-11-29T04:00:33.267Z,-1.19
2018-11-29T04:03:03.368Z,-1.19
2018-11-29T04:05:33.817Z,-1.28
2018-11-29T04:08:04.239Z,-1.18
2018-11-29T04:10:33.831Z,-1.16
2018-11-29T04:13:05.094Z,-1.14
2018-11-29T04:15:35.616Z,-1.14
2018-11-29T04:18:06.775Z,-1.13
2018-11-29T04:20:37.144Z,-1.15
2018-11-29T04:23:07.850Z,-1.09
2018-11-29T04:25:37.412Z,-1.10
2018-11-29T04:28:07.958Z,-1.12
2018-11-29T04:30:38.379Z,-1.05
2018-11-29T04:33:08.609Z,-1.02
2018-11-29T04:35:38.649Z,-1.18
2018-11-29T04:38:09.452Z,-1.09
2018-11-29T04:40:40.487Z,-1.09
2018-11-29T04:43:11.945Z,-1.10
2018-11-29T04:45:52.616Z,-1.08
2018-11-29T04:48:25.856Z,-1.06
2018-11-29T04:50:59.032Z,-1.03
2018-11-29T04:53:30.938Z,-1.10
2018-11-29T04:56:01.587Z,-1.95
2018-11-29T04:58:39.195Z,-1.16
2018-11-29T05:04:08.089Z,-1.04
2018-11-29T05:06:39.326Z,-0.94
2018-11-29T05:09:13.673Z,-0.93
2018-11-29T05:11:44.770Z,-0.93
2018-11-29T05:14:16.034Z,-0.90
2018-11-29T05:16:46.720Z,-0.91
2018-11-29T05:19:20.557Z,-1.04
2018-11-29T05:21:58.541Z,-1.03
2018-11-29T05:24:29.788Z,-1.00
2018-11-29T05:27:01.163Z,-0.96
2018-11-29T05:29:34.176Z,-1.05
2018-11-29T05:32:11.029Z,-0.91
2018-11-29T05:34:41.250Z,-0.99
2018-11-29T05:37:12.431Z,-0.94
2018-11-29T05:39:44.045Z,-0.94
2018-11-29T05:42:13.798Z,-0.98
2018-11-29T05:44:44.786Z,-0.97
2018-11-29T05:47:19.815Z,-0.97
2018-11-29T05:49:52.322Z,-0.92
2018-11-29T05:52:23.001Z,-0.92
2018-11-29T05:54:54.786Z,-0.93
2018-11-29T05:57:25.231Z,-0.91
2018-11-29T05:59:58.550Z,-0.89
2018-11-29T06:02:29.604Z,-0.86
2018-11-29T06:05:01.304Z,-0.81
2018-11-29T06:07:33.252Z,-0.81
2018-11-29T06:10:04.709Z,-0.74
2018-11-29T06:12:37.659Z,-0.73
2018-11-29T06:15:11.640Z,-0.82
2018-11-29T06:17:43.062Z,-0.75
2018-11-29T06:20:17.759Z,-0.73
2018-11-29T06:22:51.567Z,-0.81
2018-11-29T06:25:22.122Z,-0.80
2018-11-29T06:27:53.469Z,-0.75
2018-11-29T06:30:23.858Z,-0.82
2018-11-29T06:32:55.505Z,-0.80
2018-11-29T06:35:26.893Z,-0.79
2018-11-29T06:37:56.841Z,-0.79
2018-11-29T06:40:27.339Z,-0.85
2018-11-29T06:42:56.431Z,-0.73
2018-11-29T06:45:26.660Z,-0.78
2018-11-29T06:47:57.588Z,-0.75
2018-11-29T06:50:34.978Z,-0.77
2018-11-29T06:54:14.428Z,-0.82
2018-11-29T06:56:45.688Z,-0.74
2018-11-29T06:59:14.346Z,-0.86
2018-11-29T07:01:45.284Z,-0.74
2018-11-29T07:04:15.099Z,-0.81
2018-11-29T07:06:46.555Z,-0.76
2018-11-29T07:09:18.418Z,-0.77
2018-11-29T07:11:51.401Z,-0.84
2018-11-29T07:14:22.595Z,-0.81
2018-11-29T07:16:55.738Z,-0.91
2018-11-29T07:19:54.957Z,-0.91
2018-11-29T07:22:27.666Z,-0.91
2018-11-29T07:24:57.415Z,-0.86
2018-11-29T07:27:27.915Z,-0.91
2018-11-29T07:31:02.294Z,-0.83
2018-11-29T07:33:33.004Z,-0.86
2018-11-29T07:36:05.070Z,-0.79
2018-11-29T07:38:37.656Z,-0.81
2018-11-29T07:41:08.513Z,-0.84
2018-11-29T07:43:41.965Z,-0.92
2018-11-29T07:46:12.889Z,-0.70
2018-11-29T07:48:44.058Z,-0.74
2018-11-29T07:51:17.221Z,-0.70
2018-11-29T07:53:49.978Z,-0.70
2018-11-29T07:56:21.782Z,-0.62
2018-11-29T07:58:58.508Z,-0.61
2018-11-29T08:01:30.419Z,-0.59
2018-11-29T08:04:00.470Z,-0.55
2018-11-29T08:06:30.694Z,-0.58
2018-11-29T08:09:01.285Z,-0.61
2018-11-29T08:11:32.649Z,-0.66
2018-11-29T08:14:07.318Z,-0.40
2018-11-29T08:16:37.645Z,-0.47
2018-11-29T08:19:07.595Z,-0.49
2018-11-29T08:21:38.718Z,-0.31
2018-11-29T08:24:09.786Z,-0.23
2018-11-29T08:26:41.903Z,-0.01
2018-11-29T08:29:12.383Z,-0.13
2018-11-29T08:31:45.914Z,0.05
2018-11-29T08:34:17.641Z,0.16
2018-11-29T08:36:52.046Z,0.16
2018-11-29T08:39:23.299Z,0.25
2018-11-29T08:41:54.604Z,0.22
2018-11-29T08:44:24.863Z,0.33
2018-11-29T08:46:55.289Z,0.14
2018-11-29T08:49:28.107Z,0.14
2018-11-29T08:51:59.732Z,0.13
2018-11-29T08:54:30.878Z,0.03
2018-11-29T08:57:03.396Z,0.03
2018-11-29T08:59:33.403Z,0.07
2018-11-29T09:02:06.652Z,0.08
2018-11-29T09:04:38.511Z,0.13
2018-11-29T09:07:11.086Z,0.08
2018-11-29T09:09:45.170Z,0.17
2018-11-29T09:12:15.967Z,0.16
2018-11-29T09:14:47.891Z,0.25
2018-11-29T09:17:21.018Z,0.18
2018-11-29T09:19:53.646Z,0.39
2018-11-29T09:22:25.181Z,0.61
2018-11-29T09:24:57.422Z,0.59
2018-11-29T09:27:28.419Z,1.02
2018-11-29T09:29:59.765Z,1.44
2018-11-29T09:32:31.932Z,1.63
2018-11-29T09:35:02.563Z,1.58
2018-11-29T09:37:35.259Z,1.56
2018-11-29T09:40:06.960Z,1.51
2018-11-29T09:42:37.327Z,1.68
2018-11-29T09:45:11.523Z,1.82
2018-11-29T09:47:41.863Z,2.26
2018-11-29T09:50:15.557Z,2.25
2018-11-29T09:52:45.578Z,1.80
2018-11-29T09:55:20.005Z,1.43
2018-11-29T09:57:51.033Z,1.37
2018-11-29T10:00:27.986Z,1.44
2018-11-29T10:03:10.664Z,1.49
2018-11-29T10:05:46.372Z,1.70
2018-11-29T10:08:18.723Z,1.63
2018-11-29T10:10:49.177Z,1.74
2018-11-29T10:13:21.418Z,2.05
2018-11-29T10:15:53.271Z,2.13
2018-11-29T10:18:25.069Z,4.08
2018-11-29T10:21:00.906Z,4.19
2018-11-29T10:23:32.812Z,4.32
2018-11-29T10:26:03.609Z,4.42
2018-11-29T10:28:34.651Z,4.32
2018-11-29T10:31:09.538Z,3.22
2018-11-29T10:33:41.706Z,3.31
2018-11-29T10:36:14.317Z,4.39
2018-11-29T10:38:44.750Z,4.42
2018-11-29T10:41:22.272Z,3.61
2018-11-29T10:43:54.922Z,3.76
2018-11-29T10:46:27.676Z,3.87
2018-11-29T10:49:00.349Z,3.64
2018-11-29T10:54:10.925Z,3.59
2018-11-29T10:56:41.169Z,3.22
2018-11-29T10:59:14.610Z,3.21
2018-11-29T11:01:54.859Z,3.77
2018-11-29T11:04:26.486Z,3.89
2018-11-29T11:06:57.169Z,4.21
2018-11-29T11:09:33.500Z,3.72
2018-11-29T11:12:03.561Z,5.00
2018-11-29T11:14:36.397Z,4.51
2018-11-29T11:17:10.270Z,4.66
2018-11-29T11:19:47.187Z,4.34
2018-11-29T11:22:23.631Z,3.71
2018-11-29T11:24:54.672Z,3.74
2018-11-29T11:27:28.298Z,3.57
2018-11-29T11:30:02.833Z,3.94
2018-11-29T11:32:33.756Z,3.96
2018-11-29T11:35:07.519Z,3.97
2018-11-29T11:37:38.464Z,4.16
2018-11-29T11:40:11.137Z,4.03
2018-11-29T11:42:42.513Z,4.08
2018-11-29T11:45:19.098Z,4.06
2018-11-29T11:47:52.759Z,4.12
2018-11-29T11:50:30.574Z,4.12
2018-11-29T11:53:03.910Z,4.88
2018-11-29T11:55:37.989Z,4.82
2018-11-29T11:58:10.962Z,5.29
2018-11-29T12:00:45.724Z,5.19
2018-11-29T12:03:18.764Z,5.10
2018-11-29T12:05:53.401Z,4.89
2018-11-29T12:08:29.488Z,4.54
2018-11-29T12:11:08.897Z,4.22
2018-11-29T12:13:39.004Z,4.39
2018-11-29T12:16:10.819Z,4.33
2018-11-29T12:18:47.038Z,4.10
2018-11-29T12:21:19.895Z,4.05
2018-11-29T12:23:51.405Z,4.16
2018-11-29T12:26:24.760Z,3.74
2018-11-29T12:28:58.258Z,3.93
2018-11-29T12:31:33.468Z,4.29
2018-11-29T12:34:06.685Z,4.13
2018-11-29T12:36:38.479Z,3.94
2018-11-29T12:39:11.497Z,4.08
2018-11-29T12:41:51.633Z,4.36
2018-11-29T12:44:22.955Z,4.29
2018-11-29T12:46:59.126Z,4.15
2018-11-29T12:49:30.492Z,4.14
2018-11-29T12:52:07.284Z,3.87
2018-11-29T12:54:38.360Z,4.13
2018-11-29T12:57:17.098Z,3.99
2018-11-29T12:59:50.605Z,3.93
2018-11-29T13:02:29.557Z,3.99
2018-11-29T13:05:02.543Z,4.12
2018-11-29T13:07:35.203Z,4.35
2018-11-29T13:10:12.020Z,4.52
2018-11-29T13:12:48.618Z,4.77
2018-11-29T13:15:28.822Z,4.65
2018-11-29T13:18:14.458Z,4.78
2018-11-29T13:23:42.720Z,4.61
2018-11-29T13:26:14.705Z,4.49
2018-11-29T13:28:49.050Z,4.69
2018-11-29T13:31:20.568Z,4.39
2018-11-29T13:33:52.638Z,4.51
2018-11-29T13:36:27.960Z,4.17
2018-11-29T13:38:59.408Z,4.08
2018-11-29T13:41:33.141Z,4.11
2018-11-29T13:44:05.504Z,4.08
2018-11-29T13:46:41.678Z,3.84
2018-11-29T13:49:15.691Z,3.90
2018-11-29T13:51:59.535Z,3.97
2018-11-29T13:54:30.972Z,3.74
2018-11-29T13:57:03.698Z,3.77
2018-11-29T13:59:37.913Z,3.61
2018-11-29T14:02:09.810Z,3.60
2018-11-29T14:04:45.069Z,3.46
2018-11-29T14:10:05.395Z,3.39
2018-11-29T14:12:38.724Z,3.31
2018-11-29T14:15:28.974Z,3.33
2018-11-29T14:18:05.824Z,3.31
2018-11-29T14:20:42.095Z,3.23
2018-11-29T14:23:16.043Z,3.26
2018-11-29T14:25:49.695Z,3.25
2018-11-29T14:28:22.375Z,3.22
2018-11-29T14:30:56.895Z,3.20
2018-11-29T14:33:28.431Z,3.19
2018-11-29T14:36:06.689Z,3.14
2018-11-29T14:38:45.493Z,3.11
2018-11-29T14:41:21.034Z,3.10
2018-11-29T14:43:55.601Z,3.07
2018-11-29T14:46:28.449Z,3.00
2018-11-29T14:49:05.253Z,3.02
2018-11-29T14:51:39.619Z,3.01
2018-11-29T14:54:11.181Z,2.92
2018-11-29T14:56:44.168Z,2.94
2018-11-29T14:59:19.401Z,2.89
2018-11-29T15:01:53.043Z,2.86
2018-11-29T15:04:26.836Z,2.90
2018-11-29T15:07:01.756Z,2.85
2018-11-29T15:09:38.723Z,2.87
2018-11-29T15:12:13.958Z,2.83
2018-11-29T15:14:47.031Z,2.84
2018-11-29T15:17:21.312Z,2.81
2018-11-29T15:19:52.201Z,2.75
2018-11-29T15:22:24.712Z,2.82
2018-11-29T15:24:58.580Z,2.87
2018-11-29T15:27:33.007Z,2.83
2018-11-29T15:30:08.649Z,2.82
2018-11-29T15:32:39.617Z,2.85
2018-11-29T15:35:11.122Z,2.82
2018-11-29T15:37:45.053Z,2.83
2018-11-29T15:40:25.136Z,2.83
2018-11-29T15:42:57.213Z,2.78
2018-11-29T15:45:29.734Z,2.81
2018-11-29T15:48:06.407Z,2.75
2018-11-29T15:50:39.307Z,2.77
2018-11-29T15:53:15.574Z,2.77
2018-11-29T15:55:46.548Z,2.72
2018-11-29T15:58:20.918Z,2.79
2018-11-29T16:00:58.651Z,2.78
2018-11-29T16:03:34.614Z,2.69
2018-11-29T16:06:20.846Z,2.69
2018-11-29T16:08:53.536Z,2.66
2018-11-29T16:12:25.820Z,2.65
2018-11-29T16:14:58.391Z,2.67
2018-11-29T16:17:37.935Z,2.68
2018-11-29T16:20:17.493Z,2.65
2018-11-29T16:22:58.504Z,2.64
2018-11-29T16:25:31.840Z,2.60
2018-11-29T16:28:08.515Z,2.56
2018-11-29T16:30:51.845Z,2.56
2018-11-29T16:33:27.396Z,2.53
2018-11-29T16:36:19.282Z,2.50
2018-11-29T16:38:53.731Z,2.39
2018-11-29T16:41:35.338Z,2.47
2018-11-29T16:44:15.320Z,2.40
2018-11-29T16:46:52.565Z,2.46
2018-11-29T16:49:27.902Z,2.35
2018-11-29T16:52:03.762Z,2.44
2018-11-29T16:54:34.988Z,2.38
2018-11-29T16:57:10.446Z,2.41
2018-11-29T16:59:46.128Z,2.35
2018-11-29T17:02:19.168Z,2.38
2018-11-29T17:04:54.897Z,2.29
2018-11-29T17:07:31.185Z,2.32
2018-11-29T17:10:04.381Z,2.31
2018-11-29T17:12:46.520Z,2.30
2018-11-29T17:15:33.599Z,2.21
2018-11-29T17:18:12.851Z,2.21
2018-11-29T17:20:47.546Z,2.21
2018-11-29T17:23:22.537Z,2.17
2018-11-29T17:25:54.106Z,2.12
2018-11-29T17:28:29.086Z,2.17
2018-11-29T17:31:08.068Z,2.09
2018-11-29T17:33:45.905Z,2.14
2018-11-29T17:36:18.676Z,2.12
2018-11-29T17:38:50.849Z,2.15
2018-11-29T17:41:27.338Z,2.13
2018-11-29T17:44:01.723Z,2.09
2018-11-29T17:46:34.021Z,2.09
2018-11-29T17:49:11.973Z,2.06
2018-11-29T17:51:47.955Z,2.04
2018-11-29T17:54:21.969Z,2.05
2018-11-29T17:56:55.760Z,2.02
2018-11-29T17:59:35.141Z,2.01
2018-11-29T18:02:13.429Z,1.95
2018-11-29T18:04:52.753Z,1.98
2018-11-29T18:07:30.272Z,1.95
2018-11-29T18:10:29.004Z,1.90
2018-11-29T18:13:24.765Z,1.89
2018-11-29T18:16:08.508Z,1.84
2018-11-29T18:18:41.287Z,1.79
2018-11-29T18:21:15.626Z,1.83
2018-11-29T18:23:49.399Z,1.83
2018-11-29T18:26:31.780Z,1.81
2018-11-29T18:29:17.313Z,1.77
2018-11-29T18:31:49.495Z,1.78
2018-11-29T18:34:26.287Z,1.78
2018-11-29T18:36:59.419Z,1.74
2018-11-29T18:39:36.822Z,1.69
2018-11-29T18:42:20.377Z,1.66
2018-11-29T18:44:56.466Z,1.66
2018-11-29T18:47:28.451Z,1.60
2018-11-29T18:50:00.242Z,1.60
2018-11-29T18:52:36.375Z,1.59
2018-11-29T18:55:12.730Z,1.59
2018-11-29T18:57:51.531Z,1.53
2018-11-29T19:00:30.525Z,1.53
2018-11-29T19:03:19.448Z,1.49
2018-11-29T19:05:57.508Z,1.49
2018-11-29T19:08:35.107Z,1.45
2018-11-29T19:11:13.986Z,1.38
2018-11-29T19:13:49.858Z,1.38
2018-11-29T19:16:22.927Z,1.38
2018-11-29T19:19:01.514Z,1.36
2018-11-29T19:21:42.749Z,1.33
2018-11-29T19:24:26.082Z,1.36
2018-11-29T19:27:09.617Z,1.33
2018-11-29T19:29:43.974Z,1.30
2018-11-29T19:32:26.746Z,1.22
2018-11-29T19:35:00.342Z,1.24
2018-11-29T19:37:48.073Z,1.23
2018-11-29T19:40:31.137Z,1.20
2018-11-29T19:43:08.730Z,1.19
2018-11-29T19:45:42.007Z,1.12
2018-11-29T19:48:28.027Z,1.12
2018-11-29T19:51:06.533Z,1.15
2018-11-29T19:53:48.179Z,1.11
2018-11-29T19:56:35.244Z,1.07
2018-11-29T19:59:22.432Z,1.10
2018-11-29T20:01:57.160Z,1.02
2018-11-29T20:04:33.099Z,1.03
2018-11-29T20:07:11.437Z,1.01
2018-11-29T20:09:50.320Z,1.02
2018-11-29T20:12:24.214Z,0.98
2018-11-29T20:15:10.365Z,0.99
2018-11-29T20:17:46.207Z,0.96
2018-11-29T20:20:26.529Z,0.96
2018-11-29T20:23:11.580Z,0.90
2018-11-29T20:25:48.889Z,0.92
2018-11-29T20:28:22.203Z,0.91
2018-11-29T20:30:56.688Z,0.89
2018-11-29T20:33:28.889Z,0.91
2018-11-29T20:36:04.715Z,0.85
2018-11-29T20:38:39.331Z,0.83
2018-11-29T20:41:11.678Z,0.83
2018-11-29T20:43:44.766Z,0.84
2018-11-29T20:46:18.365Z,0.77
2018-11-29T20:48:54.980Z,0.79
2018-11-29T20:51:27.140Z,0.81
2018-11-29T20:55:11.463Z,0.80
2018-11-29T20:57:44.276Z,0.75
2018-11-29T21:00:15.887Z,0.81
2018-11-29T21:02:47.728Z,0.82
2018-11-29T21:05:21.474Z,0.79
2018-11-29T21:07:55.469Z,0.81
2018-11-29T21:10:27.004Z,0.78
2018-11-29T21:13:02.470Z,0.80
2018-11-29T21:15:36.065Z,0.80
2018-11-29T21:18:19.234Z,0.80
2018-11-29T21:21:01.346Z,0.80
2018-11-29T21:23:38.575Z,0.79
2018-11-29T21:26:14.738Z,0.80
2018-11-29T21:29:02.563Z,0.81
2018-11-29T21:31:44.202Z,0.82
2018-11-29T21:34:39.524Z,0.89
2018-11-29T21:37:14.577Z,0.85
2018-11-29T21:39:53.158Z,0.79
2018-11-29T21:42:27.552Z,0.81
2018-11-29T21:45:03.338Z,0.91
2018-11-29T21:47:38.319Z,0.88
2018-11-29T21:50:10.385Z,0.90
2018-11-29T21:52:41.466Z,0.89
2018-11-29T21:55:13.310Z,0.95
2018-11-29T21:57:57.124Z,0.91
2018-11-29T22:00:29.569Z,0.96
2018-11-29T22:03:04.862Z,0.92
2018-11-29T22:05:43.364Z,0.97
2018-11-29T22:08:15.847Z,0.95
2018-11-29T22:13:18.273Z,1.00
2018-11-29T22:15:51.707Z,1.02
2018-11-29T22:18:25.823Z,0.96
2018-11-29T22:21:04.638Z,0.99
2018-11-29T22:23:36.899Z,0.97
2018-11-29T22:26:16.379Z,0.95
2018-11-29T22:28:48.581Z,0.95
2018-11-29T22:31:22.819Z,0.95
2018-11-29T22:33:54.293Z,0.91
2018-11-29T22:36:29.828Z,0.97
2018-11-29T22:39:02.504Z,0.96
2018-11-29T22:41:33.847Z,0.99
2018-11-29T22:44:11.039Z,1.05
2018-11-29T22:46:45.761Z,1.05
2018-11-29T22:49:15.029Z,1.03
2018-11-29T22:51:47.436Z,1.06
2018-11-29T22:54:19.342Z,1.06
2018-11-29T22:56:59.326Z,1.06
2018-11-29T22:59:31.882Z,1.09
2018-11-29T23:02:08.326Z,1.07
2018-11-29T23:04:38.506Z,1.04
2018-11-29T23:07:10.529Z,1.03
2018-11-29T23:09:44.670Z,1.04
2018-11-29T23:12:22.717Z,1.04
2018-11-29T23:14:56.051Z,0.03
2018-11-29T23:17:28.352Z,1.03
2018-11-29T23:20:00.367Z,1.06
2018-11-29T23:22:32.374Z,1.07
2018-11-29T23:25:05.443Z,1.07
2018-11-29T23:27:36.405Z,1.06
2018-11-29T23:30:18.075Z,1.07
2018-11-29T23:32:49.755Z,1.02
2018-11-29T23:35:20.864Z,1.10
2018-11-29T23:37:53.573Z,1.13
2018-11-29T23:40:23.954Z,1.14
2018-11-29T23:42:54.933Z,1.13
2018-11-29T23:45:38.861Z,1.15
2018-11-29T23:48:09.580Z,1.22
2018-11-29T23:50:42.289Z,1.18
2018-11-29T23:53:16.991Z,1.18
2018-11-29T23:55:59.437Z,1.19
2018-11-29T23:58:30.803Z,1.16
